sensor_id;sensor_type;location;lat;lon;timestamp;pressure;altitude;pressure_sealevel;temperature;humidity
21433;BME280;18592;49.708;10.900;2023-01-28T00:01:35;99261.41;;;6.31;53.55
21433;BME280;18592;49.708;10.900;2023-01-28T00:03:37;99267.66;;;6.31;53.39
21433;BME280;18592;49.708;10.900;2023-01-28T00:05:40;99266.81;;;6.31;53.23
21433;BME280;18592;49.708;10.900;2023-01-28T00:07:41;99264.97;;;6.31;53.52
21433;BME280;18592;49.708;10.900;2023-01-28T00:09:43;99258.69;;;6.31;53.32
21433;BME280;18592;49.708;10.900;2023-01-28T00:11:45;99264.13;;;6.31;53.21
21433;BME280;18592;49.708;10.900;2023-01-28T00:13:53;99256.00;;;6.31;53.60
21433;BME280;18592;49.708;10.900;2023-01-28T00:16:02;99256.00;;;6.31;53.12
21433;BME280;18592;49.708;10.900;2023-01-28T00:18:08;99256.00;;;6.31;53.27
21433;BME280;18592;49.708;10.900;2023-01-28T00:20:10;99261.41;;;6.31;53.13
21433;BME280;18592;49.708;10.900;2023-01-28T00:22:11;99256.00;;;6.31;53.53
21433;BME280;18592;49.708;10.900;2023-01-28T00:24:15;99258.47;;;6.32;53.69
21433;BME280;18592;49.708;10.900;2023-01-28T00:26:17;99259.53;;;6.31;53.66
21433;BME280;18592;49.708;10.900;2023-01-28T00:28:20;99254.97;;;6.32;53.31
21433;BME280;18592;49.708;10.900;2023-01-28T00:30:22;99257.69;;;6.32;53.38
21433;BME280;18592;49.708;10.900;2023-01-28T00:32:24;99256.00;;;6.31;53.69
21433;BME280;18592;49.708;10.900;2023-01-28T00:34:26;99259.72;;;6.30;53.53
21433;BME280;18592;49.708;10.900;2023-01-28T00:36:28;99249.75;;;6.30;53.80
21433;BME280;18592;49.708;10.900;2023-01-28T00:38:29;99246.19;;;6.30;53.53
21433;BME280;18592;49.708;10.900;2023-01-28T00:40:31;99253.28;;;6.31;53.23
21433;BME280;18592;49.708;10.900;2023-01-28T00:42:33;99253.28;;;6.31;53.25
21433;BME280;18592;49.708;10.900;2023-01-28T00:44:35;99251.59;;;6.30;53.29
21433;BME280;18592;49.708;10.900;2023-01-28T00:46:36;99260.78;;;6.29;53.59
21433;BME280;18592;49.708;10.900;2023-01-28T00:48:40;99260.56;;;6.30;53.52
21433;BME280;18592;49.708;10.900;2023-01-28T00:50:43;99257.84;;;6.30;53.62
21433;BME280;18592;49.708;10.900;2023-01-28T00:52:47;99258.91;;;6.29;53.12
21433;BME280;18592;49.708;10.900;2023-01-28T00:54:49;99264.34;;;6.29;53.45
21433;BME280;18592;49.708;10.900;2023-01-28T00:56:50;99263.28;;;6.30;53.35
21433;BME280;18592;49.708;10.900;2023-01-28T00:58:53;99265.13;;;6.30;53.75
21433;BME280;18592;49.708;10.900;2023-01-28T01:00:55;99263.50;;;6.29;53.39
21433;BME280;18592;49.708;10.900;2023-01-28T01:02:57;99256.41;;;6.28;53.46
21433;BME280;18592;49.708;10.900;2023-01-28T01:04:59;99256.41;;;6.28;53.54
21433;BME280;18592;49.708;10.900;2023-01-28T01:07:00;99258.91;;;6.29;53.65
21433;BME280;18592;49.708;10.900;2023-01-28T01:09:04;99258.09;;;6.29;53.45
21433;BME280;18592;49.708;10.900;2023-01-28T01:11:10;99266.19;;;6.29;53.74
21433;BME280;18592;49.708;10.900;2023-01-28T01:13:12;99265.38;;;6.28;53.44
21433;BME280;18592;49.708;10.900;2023-01-28T01:15:15;99263.91;;;6.26;53.62
21433;BME280;18592;49.708;10.900;2023-01-28T01:17:17;99263.91;;;6.26;53.78
21433;BME280;18592;49.708;10.900;2023-01-28T01:19:19;99259.31;;;6.26;53.60
21433;BME280;18592;49.708;10.900;2023-01-28T01:21:30;99263.06;;;6.25;53.84
21433;BME280;18592;49.708;10.900;2023-01-28T01:23:31;99263.28;;;6.24;53.77
21433;BME280;18592;49.708;10.900;2023-01-28T01:25:33;99264.94;;;6.25;53.50
21433;BME280;18592;49.708;10.900;2023-01-28T01:27:35;99260.56;;;6.24;53.43
21433;BME280;18592;49.708;10.900;2023-01-28T01:29:37;99263.47;;;6.22;53.90
21433;BME280;18592;49.708;10.900;2023-01-28T01:31:40;99268.06;;;6.22;53.68
21433;BME280;18592;49.708;10.900;2023-01-28T01:33:43;99266.00;;;6.24;53.50
21433;BME280;18592;49.708;10.900;2023-01-28T01:35:52;99270.56;;;6.23;53.40
21433;BME280;18592;49.708;10.900;2023-01-28T01:37:59;99272.44;;;6.23;53.28
21433;BME280;18592;49.708;10.900;2023-01-28T01:40:04;99280.56;;;6.23;53.77
21433;BME280;18592;49.708;10.900;2023-01-28T01:42:10;99281.59;;;6.22;53.89
21433;BME280;18592;49.708;10.900;2023-01-28T01:46:58;99272.84;;;6.20;53.67
21433;BME280;18592;49.708;10.900;2023-01-28T01:49:17;99281.16;;;6.18;53.98
21433;BME280;18592;49.708;10.900;2023-01-28T01:51:24;99286.59;;;6.18;53.70
21433;BME280;18592;49.708;10.900;2023-01-28T01:53:29;99295.53;;;6.19;54.08
21433;BME280;18592;49.708;10.900;2023-01-28T01:55:34;99294.50;;;6.20;53.52
21433;BME280;18592;49.708;10.900;2023-01-28T01:57:38;99282.00;;;6.19;53.94
21433;BME280;18592;49.708;10.900;2023-01-28T01:59:42;99285.56;;;6.19;53.54
21433;BME280;18592;49.708;10.900;2023-01-28T02:01:45;99285.56;;;6.19;53.98
21433;BME280;18592;49.708;10.900;2023-01-28T02:03:54;99287.44;;;6.19;53.50
21433;BME280;18592;49.708;10.900;2023-01-28T02:05:58;99288.25;;;6.19;53.68
21433;BME280;18592;49.708;10.900;2023-01-28T02:08:00;99284.31;;;6.22;53.37
21433;BME280;18592;49.708;10.900;2023-01-28T02:10:21;99288.03;;;6.21;53.64
21433;BME280;18592;49.708;10.900;2023-01-28T02:12:34;99285.34;;;6.21;53.58
21433;BME280;18592;49.708;10.900;2023-01-28T02:14:42;99288.03;;;6.21;53.58
21433;BME280;18592;49.708;10.900;2023-01-28T02:16:45;99286.19;;;6.21;53.96
21433;BME280;18592;49.708;10.900;2023-01-28T02:18:47;99284.31;;;6.22;53.54
21433;BME280;18592;49.708;10.900;2023-01-28T02:28:11;99294.31;;;6.21;53.76
21433;BME280;18592;49.708;10.900;2023-01-28T02:30:21;99293.47;;;6.21;53.87
21433;BME280;18592;49.708;10.900;2023-01-28T02:32:43;99290.75;;;6.21;53.79
21433;BME280;18592;49.708;10.900;2023-01-28T02:35:23;99290.75;;;6.21;53.98
21433;BME280;18592;49.708;10.900;2023-01-28T02:37:37;99294.50;;;6.20;53.73
21433;BME280;18592;49.708;10.900;2023-01-28T02:39:47;99287.44;;;6.19;53.86
21433;BME280;18592;49.708;10.900;2023-01-28T02:42:17;99301.81;;;6.19;53.92
21433;BME280;18592;49.708;10.900;2023-01-28T02:44:21;99296.16;;;6.21;53.72
21433;BME280;18592;49.708;10.900;2023-01-28T02:48:45;99298.66;;;6.22;54.00
21433;BME280;18592;49.708;10.900;2023-01-28T02:50:54;99299.72;;;6.21;54.04
21433;BME280;18592;49.708;10.900;2023-01-28T02:53:18;99298.88;;;6.21;53.87
21433;BME280;18592;49.708;10.900;2023-01-28T02:55:50;99306.16;;;6.20;54.02
21433;BME280;18592;49.708;10.900;2023-01-28T02:58:25;99301.81;;;6.19;53.81
21433;BME280;18592;49.708;10.900;2023-01-28T03:00:53;99308.25;;;6.18;54.05
21433;BME280;18592;49.708;10.900;2023-01-28T03:03:24;99306.78;;;6.16;54.02
21433;BME280;18592;49.708;10.900;2023-01-28T03:05:37;99303.44;;;6.14;54.11
21433;BME280;18592;49.708;10.900;2023-01-28T03:07:40;99301.56;;;6.14;53.86
21433;BME280;18592;49.708;10.900;2023-01-28T03:09:44;99303.22;;;6.15;54.09
21433;BME280;18592;49.708;10.900;2023-01-28T03:14:24;99310.72;;;6.13;54.20
21433;BME280;18592;49.708;10.900;2023-01-28T03:16:45;99306.56;;;6.11;53.83
21433;BME280;18592;49.708;10.900;2023-01-28T03:19:07;99306.56;;;6.11;54.00
21433;BME280;18592;49.708;10.900;2023-01-28T03:21:39;99304.88;;;6.10;54.13
21433;BME280;18592;49.708;10.900;2023-01-28T03:24:31;99315.06;;;6.08;54.36
21433;BME280;18592;49.708;10.900;2023-01-28T03:29:46;99321.53;;;6.07;54.19
21433;BME280;18592;49.708;10.900;2023-01-28T03:32:10;99326.31;;;6.05;54.23
21433;BME280;18592;49.708;10.900;2023-01-28T03:34:31;99330.06;;;6.04;54.21
21433;BME280;18592;49.708;10.900;2023-01-28T03:36:52;99329.00;;;6.05;54.23
21433;BME280;18592;49.708;10.900;2023-01-28T03:39:13;99329.44;;;6.02;54.25
21433;BME280;18592;49.708;10.900;2023-01-28T03:41:23;99332.13;;;6.02;54.40
21433;BME280;18592;49.708;10.900;2023-01-28T03:43:28;99339.41;;;6.01;54.01
21433;BME280;18592;49.708;10.900;2023-01-28T03:45:31;99330.47;;;6.01;54.57
21433;BME280;18592;49.708;10.900;2023-01-28T03:47:35;99330.69;;;5.99;54.56
21433;BME280;18592;49.708;10.900;2023-01-28T03:49:41;99334.63;;;5.97;54.18
21433;BME280;18592;49.708;10.900;2023-01-28T03:51:43;99334.81;;;5.95;54.07
21433;BME280;18592;49.708;10.900;2023-01-28T03:53:46;99334.63;;;5.97;54.66
21433;BME280;18592;49.708;10.900;2023-01-28T03:55:50;99337.94;;;5.99;54.15
21433;BME280;18592;49.708;10.900;2023-01-28T03:57:52;99344.59;;;5.96;54.84
21433;BME280;18592;49.708;10.900;2023-01-28T03:59:54;99344.38;;;5.98;54.52
21433;BME280;18592;49.708;10.900;2023-01-28T04:01:56;99340.03;;;5.97;54.17
21433;BME280;18592;49.708;10.900;2023-01-28T04:03:58;99338.78;;;5.99;54.64
21433;BME280;18592;49.708;10.900;2023-01-28T04:06:04;99356.91;;;5.99;54.42
21433;BME280;18592;49.708;10.900;2023-01-28T04:08:24;99350.44;;;6.00;54.63
21433;BME280;18592;49.708;10.900;2023-01-28T04:10:46;99350.44;;;6.00;54.18
21433;BME280;18592;49.708;10.900;2023-01-28T04:12:55;99359.59;;;5.99;54.26
21433;BME280;18592;49.708;10.900;2023-01-28T04:14:59;99353.13;;;6.00;54.52
21433;BME280;18592;49.708;10.900;2023-01-28T04:17:04;99352.94;;;6.01;54.06
21433;BME280;18592;49.708;10.900;2023-01-28T04:19:08;99352.09;;;6.01;54.47
21433;BME280;18592;49.708;10.900;2023-01-28T04:21:10;99351.25;;;6.00;54.07
21433;BME280;18592;49.708;10.900;2023-01-28T04:23:12;99353.78;;;6.02;54.66
21433;BME280;18592;49.708;10.900;2023-01-28T04:25:14;99362.53;;;6.04;54.49
21433;BME280;18592;49.708;10.900;2023-01-28T04:27:17;99354.59;;;6.02;54.14
21433;BME280;18592;49.708;10.900;2023-01-28T04:29:21;99363.78;;;6.01;54.56
21433;BME280;18592;49.708;10.900;2023-01-28T04:31:31;99358.38;;;6.01;54.16
21433;BME280;18592;49.708;10.900;2023-01-28T04:33:56;99353.78;;;6.02;54.31
21433;BME280;18592;49.708;10.900;2023-01-28T04:36:12;99359.19;;;6.02;54.08
21433;BME280;18592;49.708;10.900;2023-01-28T04:38:38;99358.38;;;6.01;54.15
21433;BME280;18592;49.708;10.900;2023-01-28T04:40:58;99360.44;;;5.99;54.29
21433;BME280;18592;49.708;10.900;2023-01-28T04:43:06;99356.28;;;5.97;54.62
21433;BME280;18592;49.708;10.900;2023-01-28T04:45:20;99358.97;;;5.97;54.42
21433;BME280;18592;49.708;10.900;2023-01-28T04:47:32;99360.63;;;5.98;53.82
21433;BME280;18592;49.708;10.900;2023-01-28T04:49:56;99362.50;;;5.97;54.60
21433;BME280;18592;49.708;10.900;2023-01-28T04:52:16;99360.63;;;5.98;54.38
21433;BME280;18592;49.708;10.900;2023-01-28T04:54:41;99361.84;;;5.95;54.30
21433;BME280;18592;49.708;10.900;2023-01-28T04:56:43;99358.31;;;5.95;54.52
21433;BME280;18592;49.708;10.900;2023-01-28T04:58:47;99368.13;;;5.96;54.41
21433;BME280;18592;49.708;10.900;2023-01-28T05:00:57;99367.28;;;5.95;54.70
21433;BME280;18592;49.708;10.900;2023-01-28T05:02:59;99364.56;;;5.95;54.77
21433;BME280;18592;49.708;10.900;2023-01-28T05:05:01;99372.91;;;5.94;54.28
21433;BME280;18592;49.708;10.900;2023-01-28T05:07:20;99366.66;;;5.93;54.35
21433;BME280;18592;49.708;10.900;2023-01-28T05:09:22;99366.44;;;5.95;54.76
21433;BME280;18592;49.708;10.900;2023-01-28T05:11:25;99363.72;;;5.95;54.79
21433;BME280;18592;49.708;10.900;2023-01-28T05:13:32;99368.97;;;5.96;54.38
21433;BME280;18592;49.708;10.900;2023-01-28T05:15:34;99372.91;;;5.94;54.56
21433;BME280;18592;49.708;10.900;2023-01-28T05:17:36;99372.91;;;5.94;54.59
21433;BME280;18592;49.708;10.900;2023-01-28T05:19:38;99372.28;;;5.92;54.75
21433;BME280;18592;49.708;10.900;2023-01-28T05:21:47;99368.91;;;5.90;54.76
21433;BME280;18592;49.708;10.900;2023-01-28T05:23:59;99373.69;;;5.88;54.82
21433;BME280;18592;49.708;10.900;2023-01-28T05:26:02;99379.72;;;5.90;54.56
21433;BME280;18592;49.708;10.900;2023-01-28T05:28:04;99369.13;;;5.88;54.68
21433;BME280;18592;49.708;10.900;2023-01-28T05:30:06;99372.66;;;5.89;54.50
21433;BME280;18592;49.708;10.900;2023-01-28T05:32:08;99375.38;;;5.89;55.05
21433;BME280;18592;49.708;10.900;2023-01-28T05:34:10;99378.72;;;5.91;54.56
21433;BME280;18592;49.708;10.900;2023-01-28T05:36:11;99385.81;;;5.92;54.99
21433;BME280;18592;49.708;10.900;2023-01-28T05:38:14;99380.81;;;5.95;54.70
21433;BME280;18592;49.708;10.900;2023-01-28T05:40:16;99379.56;;;5.98;54.74
21433;BME280;18592;49.708;10.900;2023-01-28T05:42:18;99386.66;;;5.99;54.45
21433;BME280;18592;49.708;10.900;2023-01-28T05:44:23;99383.75;;;6.00;54.46
21433;BME280;18592;49.708;10.900;2023-01-28T05:46:33;99384.59;;;6.01;54.66
21433;BME280;18592;49.708;10.900;2023-01-28T05:48:49;99386.25;;;6.02;54.47
21433;BME280;18592;49.708;10.900;2023-01-28T05:51:12;99384.59;;;6.01;54.62
21433;BME280;18592;49.708;10.900;2023-01-28T05:53:18;99380.84;;;6.02;54.59
21433;BME280;18592;49.708;10.900;2023-01-28T05:55:20;99389.59;;;6.04;54.72
21433;BME280;18592;49.708;10.900;2023-01-28T05:57:22;99384.19;;;6.04;54.82
21433;BME280;18592;49.708;10.900;2023-01-28T05:59:24;99388.34;;;6.06;54.65
21433;BME280;18592;49.708;10.900;2023-01-28T06:01:28;99390.00;;;6.07;54.56
21433;BME280;18592;49.708;10.900;2023-01-28T06:03:33;99396.25;;;6.08;54.48
21433;BME280;18592;49.708;10.900;2023-01-28T06:05:35;99395.25;;;6.09;54.35
21433;BME280;18592;49.708;10.900;2023-01-28T06:07:43;99392.53;;;6.09;54.63
21433;BME280;18592;49.708;10.900;2023-01-28T06:09:46;99392.31;;;6.10;54.91
21433;BME280;18592;49.708;10.900;2023-01-28T06:11:52;99385.25;;;6.09;54.49
21433;BME280;18592;49.708;10.900;2023-01-28T06:13:54;99398.34;;;6.12;54.61
21433;BME280;18592;49.708;10.900;2023-01-28T06:15:59;99401.28;;;6.11;54.32
21433;BME280;18592;49.708;10.900;2023-01-28T06:18:27;99397.53;;;6.12;54.96
21433;BME280;18592;49.708;10.900;2023-01-28T06:20:29;99403.78;;;6.12;54.85
21433;BME280;18592;49.708;10.900;2023-01-28T06:22:34;99407.31;;;6.13;54.90
21433;BME280;18592;49.708;10.900;2023-01-28T06:24:38;99407.13;;;6.14;54.82
21433;BME280;18592;49.708;10.900;2023-01-28T06:26:40;99410.66;;;6.15;54.61
21433;BME280;18592;49.708;10.900;2023-01-28T06:28:41;99413.34;;;6.15;54.63
21433;BME280;18592;49.708;10.900;2023-01-28T06:30:49;99407.13;;;6.14;54.62
21433;BME280;18592;49.708;10.900;2023-01-28T06:32:55;99412.34;;;6.16;54.83
21433;BME280;18592;49.708;10.900;2023-01-28T06:34:58;99416.72;;;6.17;54.65
21433;BME280;18592;49.708;10.900;2023-01-28T06:36:59;99419.44;;;6.17;54.59
21433;BME280;18592;49.708;10.900;2023-01-28T06:39:01;99426.72;;;6.16;55.05
21433;BME280;18592;49.708;10.900;2023-01-28T06:41:03;99432.97;;;6.17;54.92
21433;BME280;18592;49.708;10.900;2023-01-28T06:43:06;99432.97;;;6.17;54.92
21433;BME280;18592;49.708;10.900;2023-01-28T06:45:08;99434.63;;;6.18;55.02
21433;BME280;18592;49.708;10.900;2023-01-28T06:47:10;99434.63;;;6.18;54.76
21433;BME280;18592;49.708;10.900;2023-01-28T06:49:11;99436.47;;;6.17;54.94
21433;BME280;18592;49.708;10.900;2023-01-28T06:51:13;99439.00;;;6.19;54.96
21433;BME280;18592;49.708;10.900;2023-01-28T06:53:17;99446.06;;;6.20;54.69
21433;BME280;18592;49.708;10.900;2023-01-28T06:55:18;99442.56;;;6.19;54.71
21433;BME280;18592;49.708;10.900;2023-01-28T06:57:20;99443.38;;;6.20;54.83
21433;BME280;18592;49.708;10.900;2023-01-28T06:59:22;99443.38;;;6.20;54.61
21433;BME280;18592;49.708;10.900;2023-01-28T07:01:24;99445.03;;;6.21;54.92
21433;BME280;18592;49.708;10.900;2023-01-28T07:03:25;99449.63;;;6.20;54.65
21433;BME280;18592;49.708;10.900;2023-01-28T07:05:27;99450.47;;;6.21;54.44
21433;BME280;18592;49.708;10.900;2023-01-28T07:07:28;99456.72;;;6.21;54.95
21433;BME280;18592;49.708;10.900;2023-01-28T07:09:30;99448.78;;;6.20;54.90
21433;BME280;18592;49.708;10.900;2023-01-28T07:11:31;99456.72;;;6.21;54.54
21433;BME280;18592;49.708;10.900;2023-01-28T07:13:36;99445.03;;;6.21;54.97
21433;BME280;18592;49.708;10.900;2023-01-28T07:15:38;99460.25;;;6.22;55.09
21433;BME280;18592;49.708;10.900;2023-01-28T07:17:43;99457.56;;;6.22;54.88
21433;BME280;18592;49.708;10.900;2023-01-28T07:19:45;99466.50;;;6.22;54.79
21433;BME280;18592;49.708;10.900;2023-01-28T07:21:46;99462.97;;;6.22;54.55
21433;BME280;18592;49.708;10.900;2023-01-28T07:23:48;99466.69;;;6.21;54.85
21433;BME280;18592;49.708;10.900;2023-01-28T07:25:50;99472.34;;;6.19;54.85
21433;BME280;18592;49.708;10.900;2023-01-28T07:27:52;99473.34;;;6.18;54.62
21433;BME280;18592;49.708;10.900;2023-01-28T07:29:56;99470.03;;;6.16;54.52
21433;BME280;18592;49.708;10.900;2023-01-28T07:31:58;99468.53;;;6.14;54.93
21433;BME280;18592;49.708;10.900;2023-01-28T07:33:59;99475.44;;;6.16;54.52
21433;BME280;18592;49.708;10.900;2023-01-28T07:36:07;99472.91;;;6.15;54.38
21433;BME280;18592;49.708;10.900;2023-01-28T07:38:08;99464.16;;;6.13;54.71
21433;BME280;18592;49.708;10.900;2023-01-28T07:40:13;99466.03;;;6.12;54.79
21433;BME280;18592;49.708;10.900;2023-01-28T07:42:15;99478.94;;;6.10;54.56
21433;BME280;18592;49.708;10.900;2023-01-28T07:44:21;99476.22;;;6.10;54.73
21433;BME280;18592;49.708;10.900;2023-01-28T07:46:22;99474.56;;;6.09;54.67
21433;BME280;18592;49.708;10.900;2023-01-28T07:48:24;99470.38;;;6.07;54.47
21433;BME280;18592;49.708;10.900;2023-01-28T07:50:30;99479.31;;;6.07;54.95
21433;BME280;18592;49.708;10.900;2023-01-28T07:52:31;99476.63;;;6.07;54.48
21433;BME280;18592;49.708;10.900;2023-01-28T07:54:39;99474.97;;;6.06;54.85
21433;BME280;18592;49.708;10.900;2023-01-28T07:56:40;99482.88;;;6.08;54.71
21433;BME280;18592;49.708;10.900;2023-01-28T07:58:42;99482.47;;;6.11;54.55
21433;BME280;18592;49.708;10.900;2023-01-28T08:00:44;99480.78;;;6.10;54.92
21433;BME280;18592;49.708;10.900;2023-01-28T08:02:47;99484.16;;;6.12;54.90
21433;BME280;18592;49.708;10.900;2023-01-28T08:04:49;99485.81;;;6.13;54.70
21433;BME280;18592;49.708;10.900;2023-01-28T08:06:51;99486.44;;;6.15;54.57
21433;BME280;18592;49.708;10.900;2023-01-28T08:08:55;99486.25;;;6.16;54.74
21433;BME280;18592;49.708;10.900;2023-01-28T08:10:57;99489.59;;;6.18;54.55
21433;BME280;18592;49.708;10.900;2023-01-28T08:13:01;99493.31;;;6.17;54.74
21433;BME280;18592;49.708;10.900;2023-01-28T08:15:04;99490.63;;;6.17;54.87
21433;BME280;18592;49.708;10.900;2023-01-28T08:17:06;99492.91;;;6.14;54.73
21433;BME280;18592;49.708;10.900;2023-01-28T08:19:08;99494.56;;;6.15;54.33
21433;BME280;18592;49.708;10.900;2023-01-28T08:21:13;99498.94;;;6.16;54.86
21433;BME280;18592;49.708;10.900;2023-01-28T08:23:17;99496.03;;;6.17;54.26
21433;BME280;18592;49.708;10.900;2023-01-28T08:25:19;99490.44;;;6.19;54.76
21433;BME280;18592;49.708;10.900;2023-01-28T08:27:21;99488.75;;;6.18;54.69
21433;BME280;18592;49.708;10.900;2023-01-28T08:29:24;99498.75;;;6.17;54.34
21433;BME280;18592;49.708;10.900;2023-01-28T08:31:26;99494.16;;;6.18;54.56
21433;BME280;18592;49.708;10.900;2023-01-28T08:33:29;99495.84;;;6.19;54.62
21433;BME280;18592;49.708;10.900;2023-01-28T08:35:32;99501.44;;;6.17;54.66
21433;BME280;18592;49.708;10.900;2023-01-28T08:37:34;99499.59;;;6.18;54.11
21433;BME280;18592;49.708;10.900;2023-01-28T08:39:36;99498.94;;;6.16;54.22
21433;BME280;18592;49.708;10.900;2023-01-28T08:41:41;99500.63;;;6.17;54.59
21433;BME280;18592;49.708;10.900;2023-01-28T08:43:42;99495.41;;;6.15;54.20
21433;BME280;18592;49.708;10.900;2023-01-28T08:45:44;99505.00;;;6.18;54.62
21433;BME280;18592;49.708;10.900;2023-01-28T08:49:59;99507.91;;;6.16;54.62
21433;BME280;18592;49.708;10.900;2023-01-28T08:52:01;99502.69;;;6.15;54.18
21433;BME280;18592;49.708;10.900;2023-01-28T08:54:03;99497.09;;;6.16;54.14
21433;BME280;18592;49.708;10.900;2023-01-28T08:56:05;99503.34;;;6.17;54.46
21433;BME280;18592;49.708;10.900;2023-01-28T08:58:12;99502.91;;;6.20;54.32
21433;BME280;18592;49.708;10.900;2023-01-28T09:00:16;99497.50;;;6.20;54.12
21433;BME280;18592;49.708;10.900;2023-01-28T09:02:18;99499.81;;;6.23;54.31
21433;BME280;18592;49.708;10.900;2023-01-28T09:04:32;99509.00;;;6.28;54.28
21433;BME280;18592;49.708;10.900;2023-01-28T09:06:34;99507.78;;;6.31;54.34
21433;BME280;18592;49.708;10.900;2023-01-28T09:08:35;99511.75;;;6.35;54.69
21433;BME280;18592;49.708;10.900;2023-01-28T09:10:38;99506.56;;;6.40;54.72
21433;BME280;18592;49.708;10.900;2023-01-28T09:12:39;99505.13;;;6.44;54.80
21433;BME280;18592;49.708;10.900;2023-01-28T09:14:41;99512.66;;;6.49;54.54
21433;BME280;18592;49.708;10.900;2023-01-28T09:16:43;99513.72;;;6.54;54.89
21433;BME280;18592;49.708;10.900;2023-01-28T09:18:45;99509.56;;;6.58;54.91
21433;BME280;18592;49.708;10.900;2023-01-28T09:20:48;99521.88;;;6.61;54.85
21433;BME280;18592;49.708;10.900;2023-01-28T09:22:50;99520.63;;;6.63;54.55
21433;BME280;18592;49.708;10.900;2023-01-28T09:24:52;99522.09;;;6.66;54.53
21433;BME280;18592;49.708;10.900;2023-01-28T09:26:53;99525.66;;;6.66;54.29
21433;BME280;18592;49.708;10.900;2023-01-28T09:28:55;99525.25;;;6.69;54.16
21433;BME280;18592;49.708;10.900;2023-01-28T09:31:04;99527.75;;;6.71;54.17
21433;BME280;18592;49.708;10.900;2023-01-28T09:33:06;99526.50;;;6.73;54.04
21433;BME280;18592;49.708;10.900;2023-01-28T09:35:08;99532.13;;;6.72;53.34
21433;BME280;18592;49.708;10.900;2023-01-28T09:37:10;99531.94;;;6.73;54.00
21433;BME280;18592;49.708;10.900;2023-01-28T09:39:12;99536.31;;;6.74;53.73
21433;BME280;18592;49.708;10.900;2023-01-28T09:41:28;99542.38;;;6.76;53.58
21433;BME280;18592;49.708;10.900;2023-01-28T09:43:53;99537.78;;;6.77;54.09
21433;BME280;18592;49.708;10.900;2023-01-28T09:46:02;99539.88;;;6.75;53.81
21433;BME280;18592;49.708;10.900;2023-01-28T09:48:10;99540.72;;;6.75;53.69
21433;BME280;18592;49.708;10.900;2023-01-28T09:50:19;99547.78;;;6.76;53.60
21433;BME280;18592;49.708;10.900;2023-01-28T09:52:25;99546.13;;;6.75;53.86
21433;BME280;18592;49.708;10.900;2023-01-28T09:54:44;99547.38;;;6.79;53.48
21433;BME280;18592;49.708;10.900;2023-01-28T09:56:47;99543.19;;;6.77;53.37
21433;BME280;18592;49.708;10.900;2023-01-28T09:58:52;99546.34;;;6.80;53.29
21433;BME280;18592;49.708;10.900;2023-01-28T10:03:18;99538.00;;;6.75;53.03
21433;BME280;18592;49.708;10.900;2023-01-28T10:05:44;99555.72;;;6.78;52.72
21433;BME280;18592;49.708;10.900;2023-01-28T10:08:05;99544.03;;;6.77;53.10
21433;BME280;18592;49.708;10.900;2023-01-28T10:10:14;99541.94;;;6.73;52.99
21433;BME280;18592;49.708;10.900;2023-01-28T10:17:37;99542.13;;;6.71;53.10
21433;BME280;18592;49.708;10.900;2023-01-28T10:19:43;99541.09;;;6.72;53.00
21433;BME280;18592;49.708;10.900;2023-01-28T10:21:54;99536.53;;;6.73;53.06
21433;BME280;18592;49.708;10.900;2023-01-28T10:24:05;99533.22;;;6.77;53.42
21433;BME280;18592;49.708;10.900;2023-01-28T10:26:21;99540.28;;;6.78;53.27
21433;BME280;18592;49.708;10.900;2023-01-28T10:28:26;99531.97;;;6.80;53.31
21433;BME280;18592;49.708;10.900;2023-01-28T10:30:31;99535.75;;;6.85;53.28
21433;BME280;18592;49.708;10.900;2023-01-28T10:32:37;99535.97;;;6.90;53.30
21433;BME280;18592;49.708;10.900;2023-01-28T10:34:44;99535.53;;;6.93;53.05
21433;BME280;18592;49.708;10.900;2023-01-28T10:36:51;99542.00;;;6.92;53.05
21433;BME280;18592;49.708;10.900;2023-01-28T10:38:53;99545.34;;;6.94;52.83
21433;BME280;18592;49.708;10.900;2023-01-28T10:40:59;99551.63;;;6.95;52.82
21433;BME280;18592;49.708;10.900;2023-01-28T10:43:03;99541.63;;;6.95;53.00
21433;BME280;18592;49.708;10.900;2023-01-28T10:45:35;99544.94;;;6.97;53.28
21433;BME280;18592;49.708;10.900;2023-01-28T10:48:02;99548.69;;;6.96;52.57
21433;BME280;18592;49.708;10.900;2023-01-28T10:50:22;99552.03;;;6.98;52.98
21433;BME280;18592;49.708;10.900;2023-01-28T10:52:24;99555.38;;;7.00;53.25
21433;BME280;18592;49.708;10.900;2023-01-28T10:54:27;99553.09;;;7.04;53.01
21433;BME280;18592;49.708;10.900;2023-01-28T10:56:32;99550.78;;;7.01;52.71
21433;BME280;18592;49.708;10.900;2023-01-28T10:59:02;99553.72;;;6.99;52.36
21433;BME280;18592;49.708;10.900;2023-01-28T11:01:06;99549.13;;;7.00;52.98
21433;BME280;18592;49.708;10.900;2023-01-28T11:03:16;99548.91;;;7.01;52.73
21433;BME280;18592;49.708;10.900;2023-01-28T11:05:19;99546.41;;;7.00;52.72
21433;BME280;18592;49.708;10.900;2023-01-28T11:07:21;99561.00;;;6.99;52.63
21433;BME280;18592;49.708;10.900;2023-01-28T11:09:30;99555.56;;;6.99;52.84
21433;BME280;18592;49.708;10.900;2023-01-28T11:11:32;99550.38;;;6.97;52.66
21433;BME280;18592;49.708;10.900;2023-01-28T11:13:33;99547.03;;;6.95;52.70
21433;BME280;18592;49.708;10.900;2023-01-28T11:15:44;99555.78;;;6.97;52.76
21433;BME280;18592;49.708;10.900;2023-01-28T11:17:52;99555.56;;;6.99;52.61
21433;BME280;18592;49.708;10.900;2023-01-28T11:19:58;99553.25;;;6.96;52.34
21433;BME280;18592;49.708;10.900;2023-01-28T11:22:03;99549.75;;;6.95;52.70
21433;BME280;18592;49.708;10.900;2023-01-28T11:24:13;99554.09;;;6.96;52.28
21433;BME280;18592;49.708;10.900;2023-01-28T11:26:21;99558.50;;;6.97;52.73
21433;BME280;18592;49.708;10.900;2023-01-28T11:28:24;99552.25;;;6.97;52.81
21433;BME280;18592;49.708;10.900;2023-01-28T11:30:33;99547.03;;;6.95;52.77
21433;BME280;18592;49.708;10.900;2023-01-28T11:32:35;99551.41;;;6.96;52.70
21433;BME280;18592;49.708;10.900;2023-01-28T11:34:47;99551.63;;;6.95;52.16
21433;BME280;18592;49.708;10.900;2023-01-28T11:36:52;99552.47;;;6.95;52.67
21433;BME280;18592;49.708;10.900;2023-01-28T11:39:13;99550.38;;;6.97;52.54